sensor_id;sensor_type;location;lat;lon;timestamp;pressure;altitude;pressure_sealevel;temperature;humidity
22755;BME280;11544;42.020;23.094;2024-01-15T00:00:58;96854.53;;;-1.95;100.00
22755;BME280;11544;42.020;23.094;2024-01-15T00:03:25;96855.84;;;-2.40;100.00
22755;BME280;11544;42.020;23.094;2024-01-15T00:05:52;96862.69;;;-2.36;100.00
22755;BME280;11544;42.020;23.094;2024-01-15T00:08:19;96860.28;;;-2.22;100.00
22755;BME280;11544;42.020;23.094;2024-01-15T00:10:46;96856.44;;;-1.69;100.00
22755;BME280;11544;42.020;23.094;2024-01-15T00:13:13;96847.97;;;-1.59;100.00
22755;BME280;11544;42.020;23.094;2024-01-15T00:15:41;96853.72;;;-1.94;100.00
22755;BME280;11544;42.020;23.094;2024-01-15T00:18:08;96848.72;;;-1.74;100.00
22755;BME280;11544;42.020;23.094;2024-01-15T00:20:36;96852.03;;;-1.88;100.00
22755;BME280;11544;42.020;23.094;2024-01-15T00:23:02;96850.19;;;-2.03;100.00
22755;BME280;11544;42.020;23.094;2024-01-15T00:25:29;96850.38;;;-1.77;100.00
22755;BME280;11544;42.020;23.094;2024-01-15T00:27:56;96857.16;;;-1.82;100.00
22755;BME280;11544;42.020;23.094;2024-01-15T00:30:23;96848.81;;;-1.60;100.00
22755;BME280;11544;42.020;23.094;2024-01-15T00:32:50;96848.94;;;-1.40;100.00
22755;BME280;11544;42.020;23.094;2024-01-15T00:35:17;96861.69;;;-2.51;100.00
22755;BME280;11544;42.020;23.094;2024-01-15T00:37:44;96862.53;;;-2.52;100.00
22755;BME280;11544;42.020;23.094;2024-01-15T00:40:11;96859.16;;;-2.50;100.00
22755;BME280;11544;42.020;23.094;2024-01-15T00:42:39;96847.41;;;-2.32;100.00
22755;BME280;11544;42.020;23.094;2024-01-15T00:45:06;96839.00;;;-2.21;100.00
22755;BME280;11544;42.020;23.094;2024-01-15T00:47:34;96841.78;;;-1.90;100.00
22755;BME280;11544;42.020;23.094;2024-01-15T00:50:02;96835.53;;;-2.29;100.00
22755;BME280;11544;42.020;23.094;2024-01-15T00:52:29;96834.56;;;-2.43;100.00
22755;BME280;11544;42.020;23.094;2024-01-15T00:54:56;96835.47;;;-2.35;100.00
22755;BME280;11544;42.020;23.094;2024-01-15T00:57:23;96834.22;;;-1.79;100.00
22755;BME280;11544;42.020;23.094;2024-01-15T00:59:50;96826.16;;;-2.28;100.00
22755;BME280;11544;42.020;23.094;2024-01-15T01:02:17;96823.78;;;-2.10;100.00
22755;BME280;11544;42.020;23.094;2024-01-15T01:04:45;96821.19;;;-2.15;100.00
22755;BME280;11544;42.020;23.094;2024-01-15T01:07:14;96819.53;;;-2.06;100.00
22755;BME280;11544;42.020;23.094;2024-01-15T01:09:41;96829.38;;;-2.49;100.00
22755;BME280;11544;42.020;23.094;2024-01-15T01:12:08;96833.03;;;-2.20;100.00
22755;BME280;11544;42.020;23.094;2024-01-15T01:14:35;96840.63;;;-2.30;100.00
22755;BME280;11544;42.020;23.094;2024-01-15T01:17:02;96843.84;;;-2.47;100.00
22755;BME280;11544;42.020;23.094;2024-01-15T01:19:30;96835.00;;;-2.83;100.00
22755;BME280;11544;42.020;23.094;2024-01-15T01:21:58;96832.72;;;-2.57;100.00
22755;BME280;11544;42.020;23.094;2024-01-15T01:24:25;96826.59;;;-2.72;100.00
22755;BME280;11544;42.020;23.094;2024-01-15T01:26:53;96828.53;;;-2.50;100.00
22755;BME280;11544;42.020;23.094;2024-01-15T01:29:20;96822.59;;;-2.46;100.00
22755;BME280;11544;42.020;23.094;2024-01-15T01:31:47;96827.03;;;-2.25;100.00
22755;BME280;11544;42.020;23.094;2024-01-15T01:34:16;96830.91;;;-2.65;100.00
22755;BME280;11544;42.020;23.094;2024-01-15T01:36:43;96828.22;;;-2.79;100.00
22755;BME280;11544;42.020;23.094;2024-01-15T01:39:10;96830.09;;;-2.61;100.00
22755;BME280;11544;42.020;23.094;2024-01-15T01:41:38;96830.06;;;-2.66;100.00
22755;BME280;11544;42.020;23.094;2024-01-15T01:44:05;96823.97;;;-2.80;100.00
22755;BME280;11544;42.020;23.094;2024-01-15T01:46:32;96827.31;;;-2.84;100.00
22755;BME280;11544;42.020;23.094;2024-01-15T01:49:00;96827.25;;;-2.89;100.00
22755;BME280;11544;42.020;23.094;2024-01-15T01:51:34;96830.88;;;-2.70;100.00
22755;BME280;11544;42.020;23.094;2024-01-15T01:54:01;96812.91;;;-2.81;100.00
22755;BME280;11544;42.020;23.094;2024-01-15T01:56:29;96808.09;;;-2.50;100.00
22755;BME280;11544;42.020;23.094;2024-01-15T01:58:56;96809.88;;;-2.41;100.00
22755;BME280;11544;42.020;23.094;2024-01-15T02:01:23;96799.97;;;-2.01;100.00
22755;BME280;11544;42.020;23.094;2024-01-15T02:03:50;96800.25;;;-2.68;100.00
22755;BME280;11544;42.020;23.094;2024-01-15T02:06:18;96799.47;;;-2.64;100.00
22755;BME280;11544;42.020;23.094;2024-01-15T02:08:45;96791.97;;;-2.47;100.00
22755;BME280;11544;42.020;23.094;2024-01-15T02:11:12;96777.09;;;-1.84;100.00
22755;BME280;11544;42.020;23.094;2024-01-15T02:13:39;96783.56;;;-2.32;100.00
22755;BME280;11544;42.020;23.094;2024-01-15T02:16:07;96785.28;;;-2.30;100.00
22755;BME280;11544;42.020;23.094;2024-01-15T02:18:43;96773.25;;;-2.45;100.00
22755;BME280;11544;42.020;23.094;2024-01-15T02:21:11;96768.94;;;-2.52;100.00
22755;BME280;11544;42.020;23.094;2024-01-15T02:23:38;96762.94;;;-2.59;100.00
22755;BME280;11544;42.020;23.094;2024-01-15T02:26:06;96762.28;;;-2.35;100.00
22755;BME280;11544;42.020;23.094;2024-01-15T02:28:35;96742.19;;;-1.82;100.00
22755;BME280;11544;42.020;23.094;2024-01-15T02:31:02;96749.31;;;-2.59;100.00
22755;BME280;11544;42.020;23.094;2024-01-15T02:33:29;96740.03;;;-2.52;100.00
22755;BME280;11544;42.020;23.094;2024-01-15T02:35:56;96744.09;;;-2.70;100.00
22755;BME280;11544;42.020;23.094;2024-01-15T02:38:23;96744.91;;;-2.79;100.00
22755;BME280;11544;42.020;23.094;2024-01-15T02:40:50;96743.03;;;-2.95;100.00
22755;BME280;11544;42.020;23.094;2024-01-15T02:43:17;96734.56;;;-2.92;100.00
22755;BME280;11544;42.020;23.094;2024-01-15T02:45:46;96734.38;;;-3.08;100.00
22755;BME280;11544;42.020;23.094;2024-01-15T02:48:14;96717.75;;;-2.70;100.00
22755;BME280;11544;42.020;23.094;2024-01-15T02:50:41;96714.34;;;-2.69;100.00
22755;BME280;11544;42.020;23.094;2024-01-15T02:53:08;96710.91;;;-2.74;100.00
22755;BME280;11544;42.020;23.094;2024-01-15T02:55:35;96703.38;;;-2.62;100.00
22755;BME280;11544;42.020;23.094;2024-01-15T02:58:03;96703.84;;;-3.05;100.00
22755;BME280;11544;42.020;23.094;2024-01-15T03:00:30;96702.41;;;-2.73;100.00
22755;BME280;11544;42.020;23.094;2024-01-15T03:02:56;96704.81;;;-2.89;100.00
22755;BME280;11544;42.020;23.094;2024-01-15T03:05:23;96705.63;;;-2.93;100.00
22755;BME280;11544;42.020;23.094;2024-01-15T03:07:50;96703.91;;;-2.97;100.00
22755;BME280;11544;42.020;23.094;2024-01-15T03:10:17;96711.38;;;-3.15;100.00
22755;BME280;11544;42.020;23.094;2024-01-15T03:12:44;96705.00;;;-2.70;100.00
22755;BME280;11544;42.020;23.094;2024-01-15T03:15:11;96688.38;;;-2.16;100.00
22755;BME280;11544;42.020;23.094;2024-01-15T03:17:38;96677.53;;;-1.66;100.00
22755;BME280;11544;42.020;23.094;2024-01-15T03:20:06;96685.34;;;-2.79;100.00
22755;BME280;11544;42.020;23.094;2024-01-15T03:22:34;96662.81;;;-2.19;100.00
22755;BME280;11544;42.020;23.094;2024-01-15T03:25:00;96659.91;;;-2.70;100.00
22755;BME280;11544;42.020;23.094;2024-01-15T03:27:28;96669.06;;;-2.95;100.00
22755;BME280;11544;42.020;23.094;2024-01-15T03:29:55;96665.63;;;-3.02;100.00
22755;BME280;11544;42.020;23.094;2024-01-15T03:32:22;96659.25;;;-2.44;100.00
22755;BME280;11544;42.020;23.094;2024-01-15T03:34:49;96661.06;;;-2.25;100.00
22755;BME280;11544;42.020;23.094;2024-01-15T03:37:16;96670.13;;;-2.70;100.00
22755;BME280;11544;42.020;23.094;2024-01-15T03:39:43;96669.31;;;-2.63;100.00
22755;BME280;11544;42.020;23.094;2024-01-15T03:42:10;96685.94;;;-3.11;100.00
22755;BME280;11544;42.020;23.094;2024-01-15T03:44:37;96679.16;;;-3.06;100.00
22755;BME280;11544;42.020;23.094;2024-01-15T03:47:04;96678.72;;;-2.57;100.00
22755;BME280;11544;42.020;23.094;2024-01-15T03:49:31;96700.69;;;-2.78;100.00
22755;BME280;11544;42.020;23.094;2024-01-15T03:51:58;96690.59;;;-2.64;100.00
22755;BME280;11544;42.020;23.094;2024-01-15T03:54:24;96693.56;;;-3.11;100.00
22755;BME280;11544;42.020;23.094;2024-01-15T03:56:52;96687.81;;;-2.90;100.00
22755;BME280;11544;42.020;23.094;2024-01-15T03:59:19;96672.31;;;-3.10;100.00
22755;BME280;11544;42.020;23.094;2024-01-15T04:01:49;96669.34;;;-2.61;100.00
22755;BME280;11544;42.020;23.094;2024-01-15T04:04:17;96691.28;;;-2.82;100.00
22755;BME280;11544;42.020;23.094;2024-01-15T04:06:45;96687.84;;;-2.87;100.00
22755;BME280;11544;42.020;23.094;2024-01-15T04:09:13;96694.38;;;-3.15;100.00
22755;BME280;11544;42.020;23.094;2024-01-15T04:11:41;96688.34;;;-3.25;100.00
22755;BME280;11544;42.020;23.094;2024-01-15T04:14:08;96687.53;;;-3.19;100.00
22755;BME280;11544;42.020;23.094;2024-01-15T04:16:35;96689.97;;;-3.30;100.00
22755;BME280;11544;42.020;23.094;2024-01-15T04:19:02;96693.81;;;-2.82;100.00
22755;BME280;11544;42.020;23.094;2024-01-15T04:21:29;96695.34;;;-3.04;100.00
22755;BME280;11544;42.020;23.094;2024-01-15T04:23:56;96699.63;;;-2.98;100.00
22755;BME280;11544;42.020;23.094;2024-01-15T04:26:23;96699.78;;;-2.81;100.00
22755;BME280;11544;42.020;23.094;2024-01-15T04:28:50;96702.13;;;-3.06;100.00
22755;BME280;11544;42.020;23.094;2024-01-15T04:31:21;96699.22;;;-3.39;100.00
22755;BME280;11544;42.020;23.094;2024-01-15T04:33:49;96701.72;;;-3.43;100.00
22755;BME280;11544;42.020;23.094;2024-01-15T04:36:16;96703.31;;;-3.52;100.00
22755;BME280;11544;42.020;23.094;2024-01-15T04:38:43;96704.28;;;-3.43;100.00
22755;BME280;11544;42.020;23.094;2024-01-15T04:41:13;96701.19;;;-3.15;100.00
22755;BME280;11544;42.020;23.094;2024-01-15T04:43:40;96698.47;;;-3.32;100.00
22755;BME280;11544;42.020;23.094;2024-01-15T04:46:07;96689.94;;;-3.34;100.00
22755;BME280;11544;42.020;23.094;2024-01-15T04:48:35;96679.94;;;-3.16;100.00
22755;BME280;11544;42.020;23.094;2024-01-15T04:51:04;96671.59;;;-3.00;100.00
22755;BME280;11544;42.020;23.094;2024-01-15T04:53:34;96672.66;;;-2.73;100.00
22755;BME280;11544;42.020;23.094;2024-01-15T04:56:01;96668.06;;;-3.11;100.00
22755;BME280;11544;42.020;23.094;2024-01-15T04:58:28;96664.41;;;-3.36;100.00
22755;BME280;11544;42.020;23.094;2024-01-15T05:00:56;96658.13;;;-0.75;100.00
22755;BME280;11544;42.020;23.094;2024-01-15T05:03:23;96660.84;;;2.14;100.00
22755;BME280;11544;42.020;23.094;2024-01-15T05:06:04;96659.16;;;-2.60;100.00
22755;BME280;11544;42.020;23.094;2024-01-15T05:08:32;96656.16;;;-3.12;100.00
22755;BME280;11544;42.020;23.094;2024-01-15T05:10:59;96668.69;;;-3.35;100.00
22755;BME280;11544;42.020;23.094;2024-01-15T05:13:26;96667.78;;;-3.40;100.00
22755;BME280;11544;42.020;23.094;2024-01-15T05:15:53;96669.63;;;-3.24;100.00
22755;BME280;11544;42.020;23.094;2024-01-15T05:18:20;96672.31;;;-3.10;100.00
22755;BME280;11544;42.020;23.094;2024-01-15T05:20:47;96661.16;;;-3.23;100.00
22755;BME280;11544;42.020;23.094;2024-01-15T05:23:15;96641.06;;;-3.76;100.00
22755;BME280;11544;42.020;23.094;2024-01-15T05:25:41;96634.28;;;-2.84;100.00
22755;BME280;11544;42.020;23.094;2024-01-15T05:28:08;96642.63;;;-3.03;100.00
22755;BME280;11544;42.020;23.094;2024-01-15T05:30:35;96637.00;;;-2.67;100.00
22755;BME280;11544;42.020;23.094;2024-01-15T05:33:03;96641.84;;;-2.99;100.00
22755;BME280;11544;42.020;23.094;2024-01-15T05:35:30;96638.25;;;-3.18;100.00
22755;BME280;11544;42.020;23.094;2024-01-15T05:37:57;96635.75;;;-3.16;100.00
22755;BME280;11544;42.020;23.094;2024-01-15T05:40:24;96637.19;;;-3.42;100.00
22755;BME280;11544;42.020;23.094;2024-01-15T05:42:51;96636.53;;;-3.21;100.00
22755;BME280;11544;42.020;23.094;2024-01-15T05:45:18;96627.91;;;-3.35;100.00
22755;BME280;11544;42.020;23.094;2024-01-15T05:47:45;96626.19;;;-3.36;100.00
22755;BME280;11544;42.020;23.094;2024-01-15T05:50:12;96611.03;;;-3.22;100.00
22755;BME280;11544;42.020;23.094;2024-01-15T05:52:39;96614.47;;;-3.18;100.00
22755;BME280;11544;42.020;23.094;2024-01-15T05:55:06;96602.19;;;-2.54;100.00
22755;BME280;11544;42.020;23.094;2024-01-15T05:57:33;96606.41;;;-2.59;100.00
22755;BME280;11544;42.020;23.094;2024-01-15T06:00:01;96605.09;;;-3.21;100.00
22755;BME280;11544;42.020;23.094;2024-01-15T06:02:28;96603.59;;;-2.97;100.00
22755;BME280;11544;42.020;23.094;2024-01-15T06:04:54;96596.72;;;-3.06;100.00
22755;BME280;11544;42.020;23.094;2024-01-15T06:07:22;96601.75;;;-3.15;100.00
22755;BME280;11544;42.020;23.094;2024-01-15T06:09:50;96586.91;;;-2.49;100.00
22755;BME280;11544;42.020;23.094;2024-01-15T06:12:17;96593.00;;;-2.20;100.00
22755;BME280;11544;42.020;23.094;2024-01-15T06:14:44;96594.66;;;-2.31;100.00
22755;BME280;11544;42.020;23.094;2024-01-15T06:17:11;96597.25;;;-2.20;100.00
22755;BME280;11544;42.020;23.094;2024-01-15T06:19:38;96585.97;;;-2.64;100.00
22755;BME280;11544;42.020;23.094;2024-01-15T06:22:05;96579.41;;;-2.16;100.00
22755;BME280;11544;42.020;23.094;2024-01-15T06:24:33;96581.94;;;-2.16;100.00
22755;BME280;11544;42.020;23.094;2024-01-15T06:27:00;96586.28;;;-1.95;100.00
22755;BME280;11544;42.020;23.094;2024-01-15T06:29:37;96586.09;;;-2.39;100.00
22755;BME280;11544;42.020;23.094;2024-01-15T06:32:05;96587.22;;;-1.73;100.00
22755;BME280;11544;42.020;23.094;2024-01-15T06:34:32;96589.50;;;-2.40;100.00
22755;BME280;11544;42.020;23.094;2024-01-15T06:36:59;96592.03;;;-2.39;100.00
22755;BME280;11544;42.020;23.094;2024-01-15T06:39:25;96588.06;;;-1.74;100.00
22755;BME280;11544;42.020;23.094;2024-01-15T06:41:53;96598.38;;;-1.40;100.00
22755;BME280;11544;42.020;23.094;2024-01-15T06:44:19;96611.78;;;-2.11;100.00
22755;BME280;11544;42.020;23.094;2024-01-15T06:46:48;96619.59;;;-1.79;100.00
22755;BME280;11544;42.020;23.094;2024-01-15T06:49:15;96610.31;;;-1.23;100.00
22755;BME280;11544;42.020;23.094;2024-01-15T06:51:42;96605.84;;;-2.07;100.00
22755;BME280;11544;42.020;23.094;2024-01-15T06:54:12;96603.38;;;-1.81;100.00
22755;BME280;11544;42.020;23.094;2024-01-15T06:56:39;96590.25;;;-2.58;100.00
22755;BME280;11544;42.020;23.094;2024-01-15T06:59:06;96598.13;;;-2.21;100.00
22755;BME280;11544;42.020;23.094;2024-01-15T07:01:33;96594.72;;;-2.19;100.00
22755;BME280;11544;42.020;23.094;2024-01-15T07:04:00;96591.31;;;-2.13;100.00
22755;BME280;11544;42.020;23.094;2024-01-15T07:06:27;96583.06;;;-1.12;100.00
22755;BME280;11544;42.020;23.094;2024-01-15T07:08:55;96580.38;;;-1.83;100.00
22755;BME280;11544;42.020;23.094;2024-01-15T07:11:22;96588.88;;;-1.93;100.00
22755;BME280;11544;42.020;23.094;2024-01-15T07:13:49;96587.31;;;-1.31;100.00
22755;BME280;11544;42.020;23.094;2024-01-15T07:16:15;96583.03;;;-1.31;100.00
22755;BME280;11544;42.020;23.094;2024-01-15T07:19:02;96585.63;;;-1.01;100.00
22755;BME280;11544;42.020;23.094;2024-01-15T07:21:29;96576.19;;;-1.53;100.00
22755;BME280;11544;42.020;23.094;2024-01-15T07:23:57;96583.03;;;-1.51;100.00
22755;BME280;11544;42.020;23.094;2024-01-15T07:26:24;96590.72;;;-1.00;100.00
22755;BME280;11544;42.020;23.094;2024-01-15T07:28:52;96576.09;;;-0.18;100.00
22755;BME280;11544;42.020;23.094;2024-01-15T07:31:19;96580.47;;;-0.78;100.00
22755;BME280;11544;42.020;23.094;2024-01-15T07:33:46;96563.41;;;-0.56;100.00
22755;BME280;11544;42.020;23.094;2024-01-15T07:36:16;96570.19;;;-0.52;100.00
22755;BME280;11544;42.020;23.094;2024-01-15T07:38:53;96556.34;;;0.04;99.30
22755;BME280;11544;42.020;23.094;2024-01-15T07:41:20;96569.16;;;0.07;99.00
22755;BME280;11544;42.020;23.094;2024-01-15T07:43:47;96573.66;;;-0.84;100.00
22755;BME280;11544;42.020;23.094;2024-01-15T07:46:14;96581.31;;;-0.67;100.00
22755;BME280;11544;42.020;23.094;2024-01-15T07:48:41;96564.13;;;-0.11;100.00
22755;BME280;11544;42.020;23.094;2024-01-15T07:51:08;96586.44;;;-0.86;100.00
22755;BME280;11544;42.020;23.094;2024-01-15T07:53:35;96602.25;;;0.53;100.00
22755;BME280;11544;42.020;23.094;2024-01-15T07:56:02;96592.34;;;-0.24;100.00
22755;BME280;11544;42.020;23.094;2024-01-15T07:58:29;96572.56;;;0.06;100.00
22755;BME280;11544;42.020;23.094;2024-01-15T08:00:56;96571.63;;;0.27;100.00
22755;BME280;11544;42.020;23.094;2024-01-15T08:03:23;96569.84;;;0.43;100.00
22755;BME280;11544;42.020;23.094;2024-01-15T08:05:51;96580.13;;;0.37;100.00
22755;BME280;11544;42.020;23.094;2024-01-15T08:08:19;96578.53;;;0.14;100.00
22755;BME280;11544;42.020;23.094;2024-01-15T08:10:48;96572.53;;;0.14;100.00
22755;BME280;11544;42.020;23.094;2024-01-15T08:13:15;96583.78;;;-0.21;100.00
22755;BME280;11544;42.020;23.094;2024-01-15T08:15:42;96585.28;;;0.29;100.00
22755;BME280;11544;42.020;23.094;2024-01-15T08:18:09;96585.88;;;0.73;100.00
22755;BME280;11544;42.020;23.094;2024-01-15T08:20:36;96586.84;;;0.58;100.00
22755;BME280;11544;42.020;23.094;2024-01-15T08:23:04;96594.84;;;-0.10;100.00
22755;BME280;11544;42.020;23.094;2024-01-15T08:25:30;96583.44;;;0.57;100.00
22755;BME280;11544;42.020;23.094;2024-01-15T08:27:58;96587.16;;;-0.08;100.00
22755;BME280;11544;42.020;23.094;2024-01-15T08:30:25;96587.97;;;-0.03;100.00
22755;BME280;11544;42.020;23.094;2024-01-15T08:32:56;96573.44;;;0.10;100.00
22755;BME280;11544;42.020;23.094;2024-01-15T08:35:33;96586.28;;;0.01;100.00
22755;BME280;11544;42.020;23.094;2024-01-15T08:38:02;96589.63;;;0.13;100.00
22755;BME280;11544;42.020;23.094;2024-01-15T08:40:29;96595.66;;;0.08;100.00
22755;BME280;11544;42.020;23.094;2024-01-15T08:42:56;96600.88;;;-0.23;100.00
22755;BME280;11544;42.020;23.094;2024-01-15T08:45:23;96593.22;;;-0.38;100.00
22755;BME280;11544;42.020;23.094;2024-01-15T08:47:50;96588.94;;;-0.27;100.00
22755;BME280;11544;42.020;23.094;2024-01-15T08:50:18;96592.31;;;-0.22;100.00
22755;BME280;11544;42.020;23.094;2024-01-15T08:52:44;96590.63;;;-0.28;100.00
22755;BME280;11544;42.020;23.094;2024-01-15T08:55:13;96588.75;;;0.16;100.00
22755;BME280;11544;42.020;23.094;2024-01-15T08:57:40;96587.81;;;0.35;100.00
22755;BME280;11544;42.020;23.094;2024-01-15T09:00:07;96587.06;;;0.15;100.00
22755;BME280;11544;42.020;23.094;2024-01-15T09:02:37;96581.19;;;-0.10;100.00
22755;BME280;11544;42.020;23.094;2024-01-15T09:05:04;96582.03;;;-0.08;100.00
22755;BME280;11544;42.020;23.094;2024-01-15T09:07:31;96575.19;;;-0.02;100.00
22755;BME280;11544;42.020;23.094;2024-01-15T09:09:58;96558.81;;;0.21;100.00
22755;BME280;11544;42.020;23.094;2024-01-15T09:12:27;96555.38;;;0.30;100.00
22755;BME280;11544;42.020;23.094;2024-01-15T09:14:54;96545.19;;;0.17;100.00
22755;BME280;11544;42.020;23.094;2024-01-15T09:17:22;96538.34;;;0.16;100.00
22755;BME280;11544;42.020;23.094;2024-01-15T09:19:52;96533.97;;;0.37;100.00
22755;BME280;11544;42.020;23.094;2024-01-15T09:22:19;96525.22;;;0.66;100.00
22755;BME280;11544;42.020;23.094;2024-01-15T09:24:47;96514.00;;;0.79;100.00
22755;BME280;11544;42.020;23.094;2024-01-15T09:27:15;96505.28;;;1.00;100.00
22755;BME280;11544;42.020;23.094;2024-01-15T09:29:42;96502.59;;;1.12;100.00
22755;BME280;11544;42.020;23.094;2024-01-15T09:32:09;96505.06;;;1.20;100.00
22755;BME280;11544;42.020;23.094;2024-01-15T09:34:36;96500.34;;;0.78;100.00
22755;BME280;11544;42.020;23.094;2024-01-15T09:37:04;96489.53;;;1.35;100.00
22755;BME280;11544;42.020;23.094;2024-01-15T09:39:31;96476.16;;;1.01;100.00
22755;BME280;11544;42.020;23.094;2024-01-15T09:41:58;96472.53;;;1.23;100.00
22755;BME280;11544;42.020;23.094;2024-01-15T09:44:27;96465.50;;;0.50;100.00
22755;BME280;11544;42.020;23.094;2024-01-15T09:46:55;96455.00;;;0.79;100.00
22755;BME280;11544;42.020;23.094;2024-01-15T09:49:22;96466.94;;;0.81;100.00
22755;BME280;11544;42.020;23.094;2024-01-15T09:51:50;96452.22;;;0.99;100.00
22755;BME280;11544;42.020;23.094;2024-01-15T09:54:32;96446.06;;;1.86;100.00
22755;BME280;11544;42.020;23.094;2024-01-15T09:57:03;96446.63;;;0.58;100.00
22755;BME280;11544;42.020;23.094;2024-01-15T09:59:31;96447.09;;;1.02;100.00
22755;BME280;11544;42.020;23.094;2024-01-15T10:01:58;96432.50;;;1.77;100.00
22755;BME280;11544;42.020;23.094;2024-01-15T10:04:26;96432.56;;;1.74;100.00
22755;BME280;11544;42.020;23.094;2024-01-15T10:06:54;96439.34;;;1.78;100.00
22755;BME280;11544;42.020;23.094;2024-01-15T10:09:23;96430.31;;;1.46;100.00
22755;BME280;11544;42.020;23.094;2024-01-15T10:11:50;96424.69;;;1.15;100.00
22755;BME280;11544;42.020;23.094;2024-01-15T10:14:17;96418.09;;;1.68;100.00
22755;BME280;11544;42.020;23.094;2024-01-15T10:16:44;96412.72;;;1.83;100.00
22755;BME280;11544;42.020;23.094;2024-01-15T10:19:11;96399.09;;;1.78;98.22
22755;BME280;11544;42.020;23.094;2024-01-15T10:21:38;96393.69;;;1.97;98.38
22755;BME280;11544;42.020;23.094;2024-01-15T10:24:05;96397.75;;;2.10;97.07
22755;BME280;11544;42.020;23.094;2024-01-15T10:26:32;96390.25;;;1.98;99.72
22755;BME280;11544;42.020;23.094;2024-01-15T10:28:59;96388.03;;;1.72;100.00
22755;BME280;11544;42.020;23.094;2024-01-15T10:31:28;96390.66;;;1.67;100.00
22755;BME280;11544;42.020;23.094;2024-01-15T10:34:23;96388.16;;;1.62;100.00
22755;BME280;11544;42.020;23.094;2024-01-15T10:36:50;96372.16;;;2.04;100.00
22755;BME280;11544;42.020;23.094;2024-01-15T10:39:22;96374.84;;;1.96;100.00
22755;BME280;11544;42.020;23.094;2024-01-15T10:41:50;96369.09;;;1.80;100.00
22755;BME280;11544;42.020;23.094;2024-01-15T10:44:20;96368.44;;;2.22;100.00
22755;BME280;11544;42.020;23.094;2024-01-15T10:46:47;96356.44;;;2.22;99.63
22755;BME280;11544;42.020;23.094;2024-01-15T10:49:14;96359.25;;;2.08;100.00
22755;BME280;11544;42.020;23.094;2024-01-15T10:51:42;96343.91;;;2.53;100.00
22755;BME280;11544;42.020;23.094;2024-01-15T10:54:10;96331.75;;;2.62;99.07
22755;BME280;11544;42.020;23.094;2024-01-15T10:56:39;96334.47;;;3.01;97.74
22755;BME280;11544;42.020;23.094;2024-01-15T10:59:06;96334.56;;;2.48;99.01
22755;BME280;11544;42.020;23.094;2024-01-15T11:01:34;96334.78;;;2.84;97.04
22755;BME280;11544;42.020;23.094;2024-01-15T11:04:02;96330.81;;;2.67;98.16
22755;BME280;11544;42.020;23.094;2024-01-15T11:06:41;96340.03;;;2.78;98.19
22755;BME280;11544;42.020;23.094;2024-01-15T11:09:09;96336.81;;;2.66;97.83
22755;BME280;11544;42.020;23.094;2024-01-15T11:11:40;96338.19;;;2.38;99.05
22755;BME280;11544;42.020;23.094;2024-01-15T11:14:07;96314.22;;;2.82;97.68
22755;BME280;11544;42.020;23.094;2024-01-15T11:16:54;96311.28;;;2.06;100.00
22755;BME280;11544;42.020;23.094;2024-01-15T11:19:46;96307.41;;;2.80;97.44
22755;BME280;11544;42.020;23.094;2024-01-15T11:25:18;96278.75;;;2.98;97.10
22755;BME280;11544;42.020;23.094;2024-01-15T11:27:49;96278.97;;;2.86;95.97
22755;BME280;11544;42.020;23.094;2024-01-15T11:30:24;96281.59;;;3.25;96.44
22755;BME280;11544;42.020;23.094;2024-01-15T11:32:52;96267.63;;;3.35;95.51
22755;BME280;11544;42.020;23.094;2024-01-15T11:35:20;96263.38;;;3.35;94.72
22755;BME280;11544;42.020;23.094;2024-01-15T11:40:43;96266.94;;;3.67;96.26
22755;BME280;11544;42.020;23.094;2024-01-15T11:43:20;96256.06;;;3.90;95.20
22755;BME280;11544;42.020;23.094;2024-01-15T11:45:52;96244.69;;;3.63;93.89
22755;BME280;11544;42.020;23.094;2024-01-15T11:48:19;96230.22;;;4.28;92.19
22755;BME280;11544;42.020;23.094;2024-01-15T11:50:49;96235.06;;;4.70;86.16
22755;BME280;11544;42.020;23.094;2024-01-15T11:53:36;96224.97;;;4.62;86.20
22755;BME280;11544;42.020;23.094;2024-01-15T11:56:11;96225.41;;;4.78;86.85
22755;BME280;11544;42.020;23.094;2024-01-15T11:58:39;96221.00;;;4.50;87.42
22755;BME280;11544;42.020;23.094;2024-01-15T12:01:11;96220.88;;;4.55;88.04
22755;BME280;11544;42.020;23.094;2024-01-15T12:03:39;96216.22;;;4.97;84.82
22755;BME280;11544;42.020;23.094;2024-01-15T12:06:07;96210.44;;;4.89;84.79
22755;BME280;11544;42.020;23.094;2024-01-15T12:08:35;96204.50;;;5.15;82.17
22755;BME280;11544;42.020;23.094;2024-01-15T12:11:07;96198.78;;;4.76;80.17
22755;BME280;11544;42.020;23.094;2024-01-15T12:13:38;96196.63;;;5.20;78.91
22755;BME280;11544;42.020;23.094;2024-01-15T12:16:05;96178.66;;;4.87;77.62
22755;BME280;11544;42.020;23.094;2024-01-15T12:18:32;96174.06;;;4.67;78.95
22755;BME280;11544;42.020;23.094;2024-01-15T12:21:00;96177.75;;;5.18;76.79
22755;BME280;11544;42.020;23.094;2024-01-15T12:23:27;96182.63;;;5.27;77.20
22755;BME280;11544;42.020;23.094;2024-01-15T12:25:54;96162.53;;;5.08;76.99
22755;BME280;11544;42.020;23.094;2024-01-15T12:28:22;96150.47;;;5.36;74.22
22755;BME280;11544;42.020;23.094;2024-01-15T12:30:49;96159.69;;;4.88;74.94
22755;BME280;11544;42.020;23.094;2024-01-15T12:33:19;96145.84;;;5.45;75.75
22755;BME280;11544;42.020;23.094;2024-01-15T12:35:48;96142.16;;;5.52;72.35
22755;BME280;11544;42.020;23.094;2024-01-15T12:38:15;96129.50;;;5.98;68.83
22755;BME280;11544;42.020;23.094;2024-01-15T12:40:45;96131.50;;;6.15;66.68
22755;BME280;11544;42.020;23.094;2024-01-15T12:43:15;96126.50;;;6.57;63.45
22755;BME280;11544;42.020;23.094;2024-01-15T12:45:42;96123.16;;;6.77;60.46
22755;BME280;11544;42.020;23.094;2024-01-15T12:48:10;96130.28;;;6.94;58.28
22755;BME280;11544;42.020;23.094;2024-01-15T12:50:38;96133.00;;;6.91;57.80
22755;BME280;11544;42.020;23.094;2024-01-15T12:53:06;96124.22;;;7.17;55.80
22755;BME280;11544;42.020;23.094;2024-01-15T12:55:34;96124.31;;;7.16;55.04